sensor_id;sensor_type;location;lat;lon;timestamp;P1;durP1;ratioP1;P2;durP2;ratioP2
27293;SDS011;14785;52.556;13.430;2022-10-16T00:01:38;2.65;;;1.60;;
27293;SDS011;14785;52.556;13.430;2022-10-16T00:04:03;6.63;;;2.10;;
27293;SDS011;14785;52.556;13.430;2022-10-16T00:06:29;4.93;;;1.87;;
27293;SDS011;14785;52.556;13.430;2022-10-16T00:08:55;2.45;;;1.48;;
27293;SDS011;14785;52.556;13.430;2022-10-16T00:11:21;2.47;;;1.57;;
27293;SDS011;14785;52.556;13.430;2022-10-16T00:13:53;2.97;;;1.80;;
27293;SDS011;14785;52.556;13.430;2022-10-16T00:16:21;3.55;;;1.40;;
27293;SDS011;14785;52.556;13.430;2022-10-16T00:18:46;2.13;;;1.40;;
27293;SDS011;14785;52.556;13.430;2022-10-16T00:21:13;2.00;;;1.50;;
27293;SDS011;14785;52.556;13.430;2022-10-16T00:23:40;3.05;;;1.52;;
27293;SDS011;14785;52.556;13.430;2022-10-16T00:26:07;2.60;;;1.47;;
27293;SDS011;14785;52.556;13.430;2022-10-16T00:28:34;1.73;;;1.20;;
27293;SDS011;14785;52.556;13.430;2022-10-16T00:31:04;1.60;;;1.20;;
27293;SDS011;14785;52.556;13.430;2022-10-16T00:33:30;3.35;;;1.20;;
27293;SDS011;14785;52.556;13.430;2022-10-16T00:35:57;1.40;;;1.03;;
27293;SDS011;14785;52.556;13.430;2022-10-16T00:38:26;2.08;;;1.45;;
27293;SDS011;14785;52.556;13.430;2022-10-16T00:40:52;1.97;;;1.40;;
27293;SDS011;14785;52.556;13.430;2022-10-16T00:43:34;2.60;;;1.23;;
27293;SDS011;14785;52.556;13.430;2022-10-16T00:46:31;3.60;;;1.20;;
27293;SDS011;14785;52.556;13.430;2022-10-16T00:56:33;1.15;;;1.02;;
27293;SDS011;14785;52.556;13.430;2022-10-16T00:58:58;2.37;;;1.40;;
27293;SDS011;14785;52.556;13.430;2022-10-16T01:01:28;2.13;;;1.13;;
27293;SDS011;14785;52.556;13.430;2022-10-16T01:03:53;6.43;;;1.50;;
27293;SDS011;14785;52.556;13.430;2022-10-16T01:06:21;1.63;;;1.33;;
27293;SDS011;14785;52.556;13.430;2022-10-16T01:08:55;1.30;;;0.98;;
27293;SDS011;14785;52.556;13.430;2022-10-16T01:11:45;4.78;;;1.33;;
27293;SDS011;14785;52.556;13.430;2022-10-16T01:14:37;2.40;;;1.20;;
27293;SDS011;14785;52.556;13.430;2022-10-16T01:17:11;2.63;;;1.23;;
27293;SDS011;14785;52.556;13.430;2022-10-16T01:28:33;1.80;;;1.20;;
27293;SDS011;14785;52.556;13.430;2022-10-16T01:31:02;1.45;;;1.00;;
27293;SDS011;14785;52.556;13.430;2022-10-16T01:33:39;2.20;;;1.10;;
27293;SDS011;14785;52.556;13.430;2022-10-16T01:36:13;1.65;;;0.95;;
27293;SDS011;14785;52.556;13.430;2022-10-16T01:38:43;1.98;;;1.00;;
27293;SDS011;14785;52.556;13.430;2022-10-16T01:41:15;1.33;;;1.00;;
27293;SDS011;14785;52.556;13.430;2022-10-16T01:43:47;1.95;;;1.33;;
27293;SDS011;14785;52.556;13.430;2022-10-16T01:46:18;3.00;;;1.25;;
27293;SDS011;14785;52.556;13.430;2022-10-16T01:48:46;3.38;;;1.10;;
27293;SDS011;14785;52.556;13.430;2022-10-16T01:51:13;1.27;;;1.08;;
27293;SDS011;14785;52.556;13.430;2022-10-16T01:53:41;1.73;;;1.10;;
27293;SDS011;14785;52.556;13.430;2022-10-16T01:56:12;1.10;;;1.00;;
27293;SDS011;14785;52.556;13.430;2022-10-16T01:58:42;2.10;;;0.93;;
27293;SDS011;14785;52.556;13.430;2022-10-16T02:01:12;1.50;;;1.13;;
27293;SDS011;14785;52.556;13.430;2022-10-16T02:03:42;2.78;;;1.20;;
27293;SDS011;14785;52.556;13.430;2022-10-16T02:06:09;1.77;;;1.10;;
27293;SDS011;14785;52.556;13.430;2022-10-16T02:08:35;1.33;;;1.03;;
27293;SDS011;14785;52.556;13.430;2022-10-16T02:11:03;2.10;;;1.20;;
27293;SDS011;14785;52.556;13.430;2022-10-16T02:13:37;1.33;;;1.10;;
27293;SDS011;14785;52.556;13.430;2022-10-16T02:16:06;3.63;;;1.08;;
27293;SDS011;14785;52.556;13.430;2022-10-16T02:18:34;3.00;;;1.10;;
27293;SDS011;14785;52.556;13.430;2022-10-16T02:21:01;2.10;;;1.23;;
27293;SDS011;14785;52.556;13.430;2022-10-16T02:23:41;1.52;;;1.02;;
27293;SDS011;14785;52.556;13.430;2022-10-16T02:26:15;2.50;;;1.02;;
27293;SDS011;14785;52.556;13.430;2022-10-16T02:28:50;1.40;;;1.02;;
27293;SDS011;14785;52.556;13.430;2022-10-16T02:31:22;11.52;;;1.30;;
27293;SDS011;14785;52.556;13.430;2022-10-16T02:33:52;2.08;;;1.73;;
27293;SDS011;14785;52.556;13.430;2022-10-16T02:36:21;1.83;;;1.20;;
27293;SDS011;14785;52.556;13.430;2022-10-16T02:38:46;2.20;;;1.30;;
27293;SDS011;14785;52.556;13.430;2022-10-16T02:41:12;1.27;;;0.97;;
27293;SDS011;14785;52.556;13.430;2022-10-16T02:43:38;1.27;;;1.17;;
27293;SDS011;14785;52.556;13.430;2022-10-16T02:46:03;1.53;;;1.20;;
27293;SDS011;14785;52.556;13.430;2022-10-16T02:48:29;2.43;;;0.90;;
27293;SDS011;14785;52.556;13.430;2022-10-16T02:50:54;1.33;;;1.03;;
27293;SDS011;14785;52.556;13.430;2022-10-16T02:53:19;2.13;;;1.17;;
27293;SDS011;14785;52.556;13.430;2022-10-16T02:55:45;1.23;;;1.00;;
27293;SDS011;14785;52.556;13.430;2022-10-16T02:58:10;3.13;;;1.10;;
27293;SDS011;14785;52.556;13.430;2022-10-16T03:00:35;1.07;;;0.83;;
27293;SDS011;14785;52.556;13.430;2022-10-16T03:03:01;3.70;;;0.70;;
27293;SDS011;14785;52.556;13.430;2022-10-16T03:05:26;1.40;;;1.00;;
27293;SDS011;14785;52.556;13.430;2022-10-16T03:07:51;1.37;;;1.27;;
27293;SDS011;14785;52.556;13.430;2022-10-16T03:10:17;1.23;;;1.00;;
27293;SDS011;14785;52.556;13.430;2022-10-16T03:12:43;1.02;;;0.80;;
27293;SDS011;14785;52.556;13.430;2022-10-16T03:15:09;1.40;;;1.30;;
27293;SDS011;14785;52.556;13.430;2022-10-16T03:17:34;1.55;;;1.10;;
27293;SDS011;14785;52.556;13.430;2022-10-16T03:20:00;1.60;;;0.90;;
27293;SDS011;14785;52.556;13.430;2022-10-16T03:22:25;1.13;;;0.97;;
27293;SDS011;14785;52.556;13.430;2022-10-16T03:24:50;2.30;;;1.30;;
27293;SDS011;14785;52.556;13.430;2022-10-16T03:27:16;2.20;;;1.13;;
27293;SDS011;14785;52.556;13.430;2022-10-16T03:29:42;2.72;;;1.45;;
27293;SDS011;14785;52.556;13.430;2022-10-16T03:32:07;2.60;;;1.30;;
27293;SDS011;14785;52.556;13.430;2022-10-16T03:34:32;1.03;;;0.90;;
27293;SDS011;14785;52.556;13.430;2022-10-16T03:36:58;1.30;;;1.03;;
27293;SDS011;14785;52.556;13.430;2022-10-16T03:39:23;1.10;;;1.00;;
27293;SDS011;14785;52.556;13.430;2022-10-16T03:41:48;3.80;;;1.03;;
27293;SDS011;14785;52.556;13.430;2022-10-16T03:44:14;2.37;;;1.27;;
27293;SDS011;14785;52.556;13.430;2022-10-16T03:46:39;1.37;;;1.00;;
27293;SDS011;14785;52.556;13.430;2022-10-16T03:49:04;4.20;;;1.27;;
27293;SDS011;14785;52.556;13.430;2022-10-16T03:51:30;1.60;;;1.33;;
27293;SDS011;14785;52.556;13.430;2022-10-16T03:53:55;5.13;;;1.43;;
27293;SDS011;14785;52.556;13.430;2022-10-16T03:56:21;1.40;;;1.13;;
27293;SDS011;14785;52.556;13.430;2022-10-16T03:58:46;2.40;;;1.60;;
27293;SDS011;14785;52.556;13.430;2022-10-16T04:01:11;1.77;;;1.40;;
27293;SDS011;14785;52.556;13.430;2022-10-16T04:03:37;2.57;;;1.30;;
27293;SDS011;14785;52.556;13.430;2022-10-16T04:06:02;1.70;;;1.10;;
27293;SDS011;14785;52.556;13.430;2022-10-16T04:08:27;2.63;;;1.40;;
27293;SDS011;14785;52.556;13.430;2022-10-16T04:10:53;2.40;;;1.13;;
27293;SDS011;14785;52.556;13.430;2022-10-16T04:13:18;1.90;;;1.70;;
27293;SDS011;14785;52.556;13.430;2022-10-16T04:15:46;1.80;;;1.23;;
27293;SDS011;14785;52.556;13.430;2022-10-16T04:18:12;1.65;;;1.20;;
27293;SDS011;14785;52.556;13.430;2022-10-16T04:20:37;2.13;;;1.10;;
27293;SDS011;14785;52.556;13.430;2022-10-16T04:23:03;2.10;;;1.23;;
27293;SDS011;14785;52.556;13.430;2022-10-16T04:25:28;6.57;;;1.60;;
27293;SDS011;14785;52.556;13.430;2022-10-16T04:27:54;2.50;;;1.60;;
27293;SDS011;14785;52.556;13.430;2022-10-16T04:30:20;4.05;;;1.20;;
27293;SDS011;14785;52.556;13.430;2022-10-16T04:32:49;2.45;;;1.25;;
27293;SDS011;14785;52.556;13.430;2022-10-16T04:35:16;1.52;;;1.20;;
27293;SDS011;14785;52.556;13.430;2022-10-16T04:37:42;2.28;;;1.30;;
27293;SDS011;14785;52.556;13.430;2022-10-16T04:40:07;2.37;;;1.23;;
27293;SDS011;14785;52.556;13.430;2022-10-16T04:42:32;2.70;;;1.10;;
27293;SDS011;14785;52.556;13.430;2022-10-16T04:44:58;1.60;;;1.10;;
27293;SDS011;14785;52.556;13.430;2022-10-16T04:47:23;1.80;;;1.07;;
27293;SDS011;14785;52.556;13.430;2022-10-16T04:49:48;4.20;;;1.23;;
27293;SDS011;14785;52.556;13.430;2022-10-16T04:52:14;1.70;;;1.10;;
27293;SDS011;14785;52.556;13.430;2022-10-16T04:54:39;1.38;;;1.10;;
27293;SDS011;14785;52.556;13.430;2022-10-16T04:57:05;1.73;;;1.20;;
27293;SDS011;14785;52.556;13.430;2022-10-16T04:59:34;1.80;;;1.17;;
27293;SDS011;14785;52.556;13.430;2022-10-16T05:01:59;1.30;;;0.95;;
27293;SDS011;14785;52.556;13.430;2022-10-16T05:04:24;2.10;;;1.20;;
27293;SDS011;14785;52.556;13.430;2022-10-16T05:06:49;2.67;;;1.17;;
27293;SDS011;14785;52.556;13.430;2022-10-16T05:09:15;2.87;;;1.40;;
27293;SDS011;14785;52.556;13.430;2022-10-16T05:11:40;2.13;;;1.77;;
27293;SDS011;14785;52.556;13.430;2022-10-16T05:14:05;2.23;;;1.57;;
27293;SDS011;14785;52.556;13.430;2022-10-16T05:16:31;8.77;;;2.23;;
27293;SDS011;14785;52.556;13.430;2022-10-16T05:18:56;1.53;;;1.30;;
27293;SDS011;14785;52.556;13.430;2022-10-16T05:21:21;4.93;;;1.77;;
27293;SDS011;14785;52.556;13.430;2022-10-16T05:23:47;2.97;;;1.65;;
27293;SDS011;14785;52.556;13.430;2022-10-16T05:26:12;3.27;;;1.63;;
27293;SDS011;14785;52.556;13.430;2022-10-16T05:28:38;4.33;;;2.20;;
27293;SDS011;14785;52.556;13.430;2022-10-16T05:31:04;4.03;;;1.77;;
27293;SDS011;14785;52.556;13.430;2022-10-16T05:33:33;1.90;;;1.20;;
27293;SDS011;14785;52.556;13.430;2022-10-16T05:36:06;17.13;;;6.40;;
27293;SDS011;14785;52.556;13.430;2022-10-16T05:38:33;5.40;;;2.72;;
27293;SDS011;14785;52.556;13.430;2022-10-16T05:40:59;3.03;;;1.80;;
27293;SDS011;14785;52.556;13.430;2022-10-16T05:43:24;6.03;;;1.70;;
27293;SDS011;14785;52.556;13.430;2022-10-16T05:45:58;2.47;;;1.33;;
27293;SDS011;14785;52.556;13.430;2022-10-16T05:48:25;2.45;;;1.60;;
27293;SDS011;14785;52.556;13.430;2022-10-16T05:50:58;2.80;;;1.63;;
27293;SDS011;14785;52.556;13.430;2022-10-16T05:53:26;2.03;;;1.40;;
27293;SDS011;14785;52.556;13.430;2022-10-16T05:55:53;2.70;;;1.98;;
27293;SDS011;14785;52.556;13.430;2022-10-16T05:58:18;3.10;;;1.60;;
27293;SDS011;14785;52.556;13.430;2022-10-16T06:00:44;2.50;;;1.67;;
27293;SDS011;14785;52.556;13.430;2022-10-16T06:03:09;2.13;;;1.30;;
27293;SDS011;14785;52.556;13.430;2022-10-16T06:05:34;2.47;;;1.60;;
27293;SDS011;14785;52.556;13.430;2022-10-16T06:08:00;3.57;;;1.47;;
27293;SDS011;14785;52.556;13.430;2022-10-16T06:10:25;2.47;;;1.60;;
27293;SDS011;14785;52.556;13.430;2022-10-16T06:12:50;2.70;;;1.90;;
27293;SDS011;14785;52.556;13.430;2022-10-16T06:15:16;4.27;;;2.17;;
27293;SDS011;14785;52.556;13.430;2022-10-16T06:17:41;3.17;;;2.20;;
27293;SDS011;14785;52.556;13.430;2022-10-16T06:20:06;6.27;;;2.30;;
27293;SDS011;14785;52.556;13.430;2022-10-16T06:22:32;4.60;;;1.80;;
27293;SDS011;14785;52.556;13.430;2022-10-16T06:24:57;4.20;;;1.60;;
27293;SDS011;14785;52.556;13.430;2022-10-16T06:27:22;2.33;;;1.60;;
27293;SDS011;14785;52.556;13.430;2022-10-16T06:29:47;2.30;;;1.70;;
27293;SDS011;14785;52.556;13.430;2022-10-16T06:32:13;2.93;;;2.07;;
27293;SDS011;14785;52.556;13.430;2022-10-16T06:34:38;2.27;;;1.50;;
27293;SDS011;14785;52.556;13.430;2022-10-16T06:37:05;3.08;;;1.55;;
27293;SDS011;14785;52.556;13.430;2022-10-16T06:39:31;4.17;;;2.17;;
27293;SDS011;14785;52.556;13.430;2022-10-16T06:41:56;3.00;;;1.37;;
27293;SDS011;14785;52.556;13.430;2022-10-16T06:44:21;1.93;;;1.43;;
27293;SDS011;14785;52.556;13.430;2022-10-16T06:46:47;3.73;;;2.07;;
27293;SDS011;14785;52.556;13.430;2022-10-16T06:49:12;2.67;;;1.50;;
27293;SDS011;14785;52.556;13.430;2022-10-16T06:51:38;3.17;;;2.00;;
27293;SDS011;14785;52.556;13.430;2022-10-16T06:54:05;2.47;;;1.60;;
27293;SDS011;14785;52.556;13.430;2022-10-16T06:56:31;2.90;;;1.50;;
27293;SDS011;14785;52.556;13.430;2022-10-16T06:58:58;3.83;;;1.65;;
27293;SDS011;14785;52.556;13.430;2022-10-16T07:01:24;2.28;;;1.90;;
27293;SDS011;14785;52.556;13.430;2022-10-16T07:03:50;5.15;;;1.90;;
27293;SDS011;14785;52.556;13.430;2022-10-16T07:06:17;1.55;;;1.27;;
27293;SDS011;14785;52.556;13.430;2022-10-16T07:08:44;2.40;;;1.35;;
27293;SDS011;14785;52.556;13.430;2022-10-16T07:13:40;2.30;;;1.40;;
27293;SDS011;14785;52.556;13.430;2022-10-16T07:16:08;2.53;;;1.15;;
27293;SDS011;14785;52.556;13.430;2022-10-16T07:18:33;3.25;;;1.90;;
27293;SDS011;14785;52.556;13.430;2022-10-16T07:21:18;2.63;;;1.50;;
27293;SDS011;14785;52.556;13.430;2022-10-16T07:23:54;3.67;;;1.20;;
27293;SDS011;14785;52.556;13.430;2022-10-16T07:26:22;1.67;;;1.30;;
27293;SDS011;14785;52.556;13.430;2022-10-16T07:31:14;2.70;;;1.38;;
27293;SDS011;14785;52.556;13.430;2022-10-16T07:33:43;1.83;;;1.38;;
27293;SDS011;14785;52.556;13.430;2022-10-16T07:36:10;2.30;;;1.20;;
27293;SDS011;14785;52.556;13.430;2022-10-16T07:38:36;1.60;;;1.50;;
27293;SDS011;14785;52.556;13.430;2022-10-16T07:41:05;2.47;;;1.60;;
27293;SDS011;14785;52.556;13.430;2022-10-16T07:43:32;4.15;;;1.27;;
27293;SDS011;14785;52.556;13.430;2022-10-16T07:45:58;1.52;;;0.95;;
27293;SDS011;14785;52.556;13.430;2022-10-16T07:48:24;2.65;;;1.10;;
27293;SDS011;14785;52.556;13.430;2022-10-16T07:50:51;1.88;;;1.38;;
27293;SDS011;14785;52.556;13.430;2022-10-16T07:53:17;1.20;;;0.90;;
27293;SDS011;14785;52.556;13.430;2022-10-16T07:55:42;2.00;;;1.27;;
27293;SDS011;14785;52.556;13.430;2022-10-16T07:58:07;5.83;;;3.00;;
27293;SDS011;14785;52.556;13.430;2022-10-16T08:00:33;5.10;;;1.90;;
27293;SDS011;14785;52.556;13.430;2022-10-16T08:02:58;3.20;;;1.20;;
27293;SDS011;14785;52.556;13.430;2022-10-16T08:05:26;2.13;;;1.30;;
27293;SDS011;14785;52.556;13.430;2022-10-16T08:07:52;2.70;;;1.20;;
27293;SDS011;14785;52.556;13.430;2022-10-16T08:10:18;1.70;;;1.20;;
27293;SDS011;14785;52.556;13.430;2022-10-16T08:12:45;2.95;;;1.25;;
27293;SDS011;14785;52.556;13.430;2022-10-16T08:15:10;1.43;;;1.10;;
27293;SDS011;14785;52.556;13.430;2022-10-16T08:17:36;1.67;;;0.95;;
27293;SDS011;14785;52.556;13.430;2022-10-16T08:20:02;1.53;;;1.20;;
27293;SDS011;14785;52.556;13.430;2022-10-16T08:22:28;8.30;;;1.30;;
27293;SDS011;14785;52.556;13.430;2022-10-16T08:24:53;0.80;;;0.73;;
27293;SDS011;14785;52.556;13.430;2022-10-16T08:27:18;1.13;;;0.90;;
27293;SDS011;14785;52.556;13.430;2022-10-16T08:29:44;2.93;;;1.07;;
27293;SDS011;14785;52.556;13.430;2022-10-16T08:32:09;3.60;;;1.10;;
27293;SDS011;14785;52.556;13.430;2022-10-16T08:34:34;1.37;;;0.90;;
27293;SDS011;14785;52.556;13.430;2022-10-16T08:37:00;1.63;;;1.37;;
27293;SDS011;14785;52.556;13.430;2022-10-16T08:39:25;2.43;;;1.37;;
27293;SDS011;14785;52.556;13.430;2022-10-16T08:42:11;5.93;;;1.43;;
27293;SDS011;14785;52.556;13.430;2022-10-16T08:44:56;1.20;;;1.10;;
27293;SDS011;14785;52.556;13.430;2022-10-16T08:47:45;3.03;;;1.20;;
27293;SDS011;14785;52.556;13.430;2022-10-16T08:50:25;1.90;;;1.30;;
27293;SDS011;14785;52.556;13.430;2022-10-16T08:52:53;2.63;;;1.05;;
27293;SDS011;14785;52.556;13.430;2022-10-16T08:55:27;1.58;;;1.13;;
27293;SDS011;14785;52.556;13.430;2022-10-16T08:58:15;4.95;;;1.40;;
27293;SDS011;14785;52.556;13.430;2022-10-16T09:00:42;1.52;;;0.82;;
27293;SDS011;14785;52.556;13.430;2022-10-16T09:11:01;1.42;;;0.98;;
27293;SDS011;14785;52.556;13.430;2022-10-16T09:16:19;1.27;;;0.90;;
27293;SDS011;14785;52.556;13.430;2022-10-16T09:21:25;1.63;;;1.00;;
27293;SDS011;14785;52.556;13.430;2022-10-16T09:23:54;1.50;;;1.00;;
27293;SDS011;14785;52.556;13.430;2022-10-16T09:26:24;2.50;;;1.08;;
27293;SDS011;14785;52.556;13.430;2022-10-16T09:28:51;2.97;;;1.20;;
27293;SDS011;14785;52.556;13.430;2022-10-16T09:31:18;2.40;;;1.00;;
27293;SDS011;14785;52.556;13.430;2022-10-16T09:33:48;3.25;;;1.20;;
27293;SDS011;14785;52.556;13.430;2022-10-16T09:36:17;3.92;;;1.17;;
27293;SDS011;14785;52.556;13.430;2022-10-16T09:38:44;3.15;;;1.10;;
27293;SDS011;14785;52.556;13.430;2022-10-16T09:41:19;6.43;;;1.10;;
27293;SDS011;14785;52.556;13.430;2022-10-16T09:50:30;1.50;;;1.20;;
27293;SDS011;14785;52.556;13.430;2022-10-16T09:53:13;2.58;;;1.13;;
27293;SDS011;14785;52.556;13.430;2022-10-16T10:02:44;2.47;;;1.08;;
27293;SDS011;14785;52.556;13.430;2022-10-16T10:05:26;3.17;;;1.10;;
27293;SDS011;14785;52.556;13.430;2022-10-16T10:07:57;1.38;;;0.90;;
27293;SDS011;14785;52.556;13.430;2022-10-16T10:19:46;1.55;;;0.77;;
27293;SDS011;14785;52.556;13.430;2022-10-16T10:37:04;1.20;;;0.80;;
27293;SDS011;14785;52.556;13.430;2022-10-16T10:50:02;1.58;;;0.70;;
27293;SDS011;14785;52.556;13.430;2022-10-16T10:55:43;0.85;;;0.70;;
27293;SDS011;14785;52.556;13.430;2022-10-16T10:58:48;0.75;;;0.60;;
27293;SDS011;14785;52.556;13.430;2022-10-16T11:01:29;0.82;;;0.82;;
27293;SDS011;14785;52.556;13.430;2022-10-16T11:06:55;2.00;;;0.60;;
27293;SDS011;14785;52.556;13.430;2022-10-16T11:09:44;0.82;;;0.65;;
27293;SDS011;14785;52.556;13.430;2022-10-16T11:12:15;0.77;;;0.60;;
27293;SDS011;14785;52.556;13.430;2022-10-16T11:17:42;2.22;;;0.65;;
27293;SDS011;14785;52.556;13.430;2022-10-16T11:22:39;1.37;;;0.77;;
27293;SDS011;14785;52.556;13.430;2022-10-16T11:27:44;1.17;;;0.70;;
27293;SDS011;14785;52.556;13.430;2022-10-16T11:30:18;2.42;;;0.68;;
27293;SDS011;14785;52.556;13.430;2022-10-16T11:32:54;0.45;;;0.45;;
27293;SDS011;14785;52.556;13.430;2022-10-16T11:35:37;1.75;;;0.68;;
27293;SDS011;14785;52.556;13.430;2022-10-16T11:38:15;0.55;;;0.40;;
27293;SDS011;14785;52.556;13.430;2022-10-16T11:40:46;3.33;;;0.50;;
27293;SDS011;14785;52.556;13.430;2022-10-16T11:43:17;0.98;;;0.70;;
27293;SDS011;14785;52.556;13.430;2022-10-16T11:46:13;1.15;;;0.70;;
27293;SDS011;14785;52.556;13.430;2022-10-16T11:48:45;1.00;;;0.57;;
27293;SDS011;14785;52.556;13.430;2022-10-16T11:57:17;0.80;;;0.80;;
27293;SDS011;14785;52.556;13.430;2022-10-16T11:59:55;0.95;;;0.60;;
27293;SDS011;14785;52.556;13.430;2022-10-16T12:08:33;1.55;;;0.82;;
27293;SDS011;14785;52.556;13.430;2022-10-16T12:11:07;0.95;;;0.50;;
27293;SDS011;14785;52.556;13.430;2022-10-16T12:13:39;4.03;;;1.70;;
27293;SDS011;14785;52.556;13.430;2022-10-16T12:18:44;1.08;;;0.80;;
27293;SDS011;14785;52.556;13.430;2022-10-16T12:21:15;1.02;;;0.70;;
27293;SDS011;14785;52.556;13.430;2022-10-16T12:26:23;0.50;;;0.32;;
27293;SDS011;14785;52.556;13.430;2022-10-16T12:28:53;7.25;;;1.10;;
27293;SDS011;14785;52.556;13.430;2022-10-16T12:31:20;4.35;;;1.10;;
27293;SDS011;14785;52.556;13.430;2022-10-16T12:36:27;0.82;;;0.70;;
27293;SDS011;14785;52.556;13.430;2022-10-16T12:38:55;0.77;;;0.25;;
27293;SDS011;14785;52.556;13.430;2022-10-16T12:41:38;0.40;;;0.40;;
27293;SDS011;14785;52.556;13.430;2022-10-16T12:44:05;1.52;;;0.45;;
27293;SDS011;14785;52.556;13.430;2022-10-16T12:46:46;1.08;;;0.60;;
27293;SDS011;14785;52.556;13.430;2022-10-16T12:51:37;4.05;;;0.50;;
27293;SDS011;14785;52.556;13.430;2022-10-16T12:56:51;1.23;;;0.43;;
27293;SDS011;14785;52.556;13.430;2022-10-16T13:10:56;0.30;;;0.30;;
27293;SDS011;14785;52.556;13.430;2022-10-16T13:13:39;0.40;;;0.35;;
27293;SDS011;14785;52.556;13.430;2022-10-16T13:16:19;2.40;;;0.40;;
27293;SDS011;14785;52.556;13.430;2022-10-16T13:19:15;0.80;;;0.40;;
27293;SDS011;14785;52.556;13.430;2022-10-16T13:21:53;1.10;;;0.82;;
27293;SDS011;14785;52.556;13.430;2022-10-16T13:27:07;0.47;;;0.30;;
27293;SDS011;14785;52.556;13.430;2022-10-16T13:29:45;0.65;;;0.32;;
27293;SDS011;14785;52.556;13.430;2022-10-16T13:32:17;1.77;;;0.43;;
27293;SDS011;14785;52.556;13.430;2022-10-16T13:34:45;0.40;;;0.30;;
27293;SDS011;14785;52.556;13.430;2022-10-16T13:37:18;3.78;;;0.95;;
27293;SDS011;14785;52.556;13.430;2022-10-16T13:39:46;0.75;;;0.40;;
27293;SDS011;14785;52.556;13.430;2022-10-16T13:42:22;0.57;;;0.57;;
27293;SDS011;14785;52.556;13.430;2022-10-16T13:44:51;0.32;;;0.32;;
27293;SDS011;14785;52.556;13.430;2022-10-16T13:47:18;0.70;;;0.40;;
27293;SDS011;14785;52.556;13.430;2022-10-16T13:50:02;0.63;;;0.40;;
27293;SDS011;14785;52.556;13.430;2022-10-16T13:52:36;0.73;;;0.50;;
27293;SDS011;14785;52.556;13.430;2022-10-16T13:55:03;0.85;;;0.55;;
27293;SDS011;14785;52.556;13.430;2022-10-16T13:57:29;2.50;;;0.45;;
27293;SDS011;14785;52.556;13.430;2022-10-16T13:59:55;0.37;;;0.27;;
27293;SDS011;14785;52.556;13.430;2022-10-16T14:04:59;2.25;;;0.65;;
27293;SDS011;14785;52.556;13.430;2022-10-16T14:07:28;0.93;;;0.50;;
27293;SDS011;14785;52.556;13.430;2022-10-16T14:10:01;1.52;;;0.98;;
27293;SDS011;14785;52.556;13.430;2022-10-16T14:12:30;1.60;;;0.77;;
27293;SDS011;14785;52.556;13.430;2022-10-16T14:14:55;1.13;;;0.60;;
27293;SDS011;14785;52.556;13.430;2022-10-16T14:17:29;0.60;;;0.35;;
27293;SDS011;14785;52.556;13.430;2022-10-16T14:19:57;1.33;;;0.65;;
27293;SDS011;14785;52.556;13.430;2022-10-16T14:30:27;1.88;;;0.68;;
27293;SDS011;14785;52.556;13.430;2022-10-16T14:32:55;1.65;;;0.90;;
27293;SDS011;14785;52.556;13.430;2022-10-16T14:35:23;0.52;;;0.47;;
27293;SDS011;14785;52.556;13.430;2022-10-16T14:37:51;0.57;;;0.40;;
27293;SDS011;14785;52.556;13.430;2022-10-16T14:40:17;1.42;;;0.40;;
27293;SDS011;14785;52.556;13.430;2022-10-16T14:42:43;0.60;;;0.55;;
27293;SDS011;14785;52.556;13.430;2022-10-16T14:45:10;2.13;;;0.55;;
27293;SDS011;14785;52.556;13.430;2022-10-16T14:47:36;1.02;;;0.60;;
27293;SDS011;14785;52.556;13.430;2022-10-16T14:50:22;0.85;;;0.60;;
27293;SDS011;14785;52.556;13.430;2022-10-16T14:52:48;0.60;;;0.30;;
27293;SDS011;14785;52.556;13.430;2022-10-16T14:55:14;0.90;;;0.50;;
27293;SDS011;14785;52.556;13.430;2022-10-16T15:02:40;3.60;;;0.70;;
27293;SDS011;14785;52.556;13.430;2022-10-16T15:07:44;0.55;;;0.38;;
27293;SDS011;14785;52.556;13.430;2022-10-16T15:10:11;1.52;;;0.90;;
27293;SDS011;14785;52.556;13.430;2022-10-16T15:12:37;1.90;;;0.60;;
27293;SDS011;14785;52.556;13.430;2022-10-16T15:15:10;1.07;;;0.60;;
27293;SDS011;14785;52.556;13.430;2022-10-16T15:17:57;2.70;;;0.95;;
27293;SDS011;14785;52.556;13.430;2022-10-16T15:20:29;0.80;;;0.60;;
27293;SDS011;14785;52.556;13.430;2022-10-16T15:22:58;2.90;;;0.95;;
27293;SDS011;14785;52.556;13.430;2022-10-16T15:28:10;2.97;;;0.63;;
27293;SDS011;14785;52.556;13.430;2022-10-16T15:30:36;0.88;;;0.65;;
27293;SDS011;14785;52.556;13.430;2022-10-16T15:33:02;0.68;;;0.52;;
27293;SDS011;14785;52.556;13.430;2022-10-16T15:35:29;1.35;;;0.63;;
27293;SDS011;14785;52.556;13.430;2022-10-16T15:37:55;2.10;;;0.90;;
27293;SDS011;14785;52.556;13.430;2022-10-16T15:40:21;3.03;;;1.10;;
27293;SDS011;14785;52.556;13.430;2022-10-16T15:42:47;2.00;;;0.80;;
27293;SDS011;14785;52.556;13.430;2022-10-16T15:45:13;1.15;;;0.70;;
27293;SDS011;14785;52.556;13.430;2022-10-16T15:47:40;0.68;;;0.68;;
27293;SDS011;14785;52.556;13.430;2022-10-16T15:50:06;0.88;;;0.68;;
27293;SDS011;14785;52.556;13.430;2022-10-16T15:52:34;2.92;;;0.80;;
27293;SDS011;14785;52.556;13.430;2022-10-16T15:54:59;2.60;;;0.93;;
27293;SDS011;14785;52.556;13.430;2022-10-16T15:57:24;1.53;;;0.80;;
27293;SDS011;14785;52.556;13.430;2022-10-16T15:59:50;3.67;;;1.20;;
27293;SDS011;14785;52.556;13.430;2022-10-16T16:02:15;1.53;;;0.80;;
27293;SDS011;14785;52.556;13.430;2022-10-16T16:04:41;2.67;;;0.90;;
27293;SDS011;14785;52.556;13.430;2022-10-16T16:07:06;4.10;;;0.93;;
27293;SDS011;14785;52.556;13.430;2022-10-16T16:09:32;7.83;;;1.60;;
27293;SDS011;14785;52.556;13.430;2022-10-16T16:11:58;2.92;;;1.23;;
27293;SDS011;14785;52.556;13.430;2022-10-16T16:14:25;4.13;;;0.80;;
27293;SDS011;14785;52.556;13.430;2022-10-16T16:16:55;1.23;;;0.75;;
27293;SDS011;14785;52.556;13.430;2022-10-16T16:19:21;2.55;;;1.23;;
27293;SDS011;14785;52.556;13.430;2022-10-16T16:21:47;10.27;;;2.90;;
27293;SDS011;14785;52.556;13.430;2022-10-16T16:24:13;6.07;;;1.38;;
27293;SDS011;14785;52.556;13.430;2022-10-16T16:26:39;3.47;;;1.20;;
27293;SDS011;14785;52.556;13.430;2022-10-16T16:29:08;4.63;;;1.33;;
27293;SDS011;14785;52.556;13.430;2022-10-16T16:31:36;1.98;;;1.00;;
27293;SDS011;14785;52.556;13.430;2022-10-16T16:34:02;6.87;;;1.30;;
27293;SDS011;14785;52.556;13.430;2022-10-16T16:38:53;4.13;;;1.97;;
27293;SDS011;14785;52.556;13.430;2022-10-16T16:41:19;4.57;;;1.73;;
27293;SDS011;14785;52.556;13.430;2022-10-16T16:43:46;6.72;;;1.98;;
27293;SDS011;14785;52.556;13.430;2022-10-16T16:46:18;2.20;;;1.30;;
27293;SDS011;14785;52.556;13.430;2022-10-16T16:48:44;3.10;;;1.40;;
27293;SDS011;14785;52.556;13.430;2022-10-16T16:51:11;3.80;;;1.25;;
27293;SDS011;14785;52.556;13.430;2022-10-16T16:53:43;6.13;;;1.65;;
27293;SDS011;14785;52.556;13.430;2022-10-16T16:58:34;5.80;;;1.70;;
27293;SDS011;14785;52.556;13.430;2022-10-16T17:00:59;4.63;;;1.67;;
27293;SDS011;14785;52.556;13.430;2022-10-16T17:03:33;2.13;;;1.30;;
27293;SDS011;14785;52.556;13.430;2022-10-16T17:06:01;2.40;;;1.27;;
27293;SDS011;14785;52.556;13.430;2022-10-16T17:08:28;3.45;;;1.33;;
27293;SDS011;14785;52.556;13.430;2022-10-16T17:10:54;3.85;;;1.27;;
27293;SDS011;14785;52.556;13.430;2022-10-16T17:13:22;4.53;;;1.30;;
27293;SDS011;14785;52.556;13.430;2022-10-16T17:15:52;2.17;;;1.10;;
27293;SDS011;14785;52.556;13.430;2022-10-16T17:18:20;2.22;;;1.00;;
27293;SDS011;14785;52.556;13.430;2022-10-16T17:20:47;3.50;;;1.40;;
27293;SDS011;14785;52.556;13.430;2022-10-16T17:23:13;3.83;;;1.10;;
27293;SDS011;14785;52.556;13.430;2022-10-16T17:25:40;5.53;;;1.80;;